• Join FlightAware (Why Join?)
  • Login
  • US Flag 
12:55AM EDT


 

Airport Tracker/Info


-or-


 

Live Flight TrackerFlight Track Log ✈ RPA3392 ✈ 09-May-2013 ✈ KMSP - KDCA

Flight Track Log - Related Links

Times and Time Zones

All times are in EDT time to prevent confusion due to time zone crossing. See the RPA3392 flight status page for this flight to view local times or setup timezone preferences in your user account.

Time Position Orientation Groundspeed Altitude Reporting Facility
EDT Latitude Longitude Course Direction KTS MPH feet Rate Location/Type
05:55PM 44.9167 -93.2333 115° Southeast 153 176 2,300  Level Minneapolis TRACON
05:56PM 44.9667 -93.2333 360° North 206 237 3,700 1,560 Climbing Minneapolis TRACON
05:57PM 44.7556 -92.7614 111° Southeast  Level Estimated
05:57PM 44.9883 -93.1864 57° Northeast 237 273 5,300  Level Minneapolis Center
05:58PM 44.7131 -92.6083 113° Southeast  Level Estimated
05:58PM 44.9564 -93.0939 116° Southeast 267 307 7,700  Level Minneapolis Center
05:59PM 44.6704 -92.4555 125° Southeast  Level Estimated
06:00PM 44.6274 -92.3030 117° Southeast  Level Estimated
06:00PM 44.9139 -92.9986 122° Southeast 283 326 10,300  Level Minneapolis Center
06:01PM 44.5852 -92.1540 115° Southeast  Level Estimated
06:01PM 44.8617 -92.8689 120° Southeast 319 367 12,400  Level Minneapolis Center
06:02PM 44.8069 -92.7325 119° Southeast 333 383 15,000 1,980 Climbing Minneapolis Center
06:03PM 44.7594 -92.6142 119° Southeast 347 399 16,600 1,500 Climbing Minneapolis Center
06:04PM 44.7092 -92.4931 120° Southeast 360 414 18,200 1,500 Climbing Minneapolis Center
06:05PM 44.6692 -92.3956 120° Southeast 360 414 19,800 1,680 Climbing Minneapolis Center
06:06PM 44.6094 -92.2481 120° Southeast 362 417 21,700 1,560 Climbing Minneapolis Center
06:07PM 44.5572 -92.1217 120° Southeast 371 427 23,100 1,260 Climbing Minneapolis Center
06:08PM 44.4944 -91.9664 120° Southeast 382 440 24,400 1,200 Climbing Minneapolis Center
06:09PM 44.4389 -91.8322 120° Southeast 396 456 25,700 1,080 Climbing Minneapolis Center
06:10PM 44.3831 -91.6992 120° Southeast 399 459 26,700 840 Climbing Minneapolis Center
06:11PM 44.3247 -91.5600 120° Southeast 410 472 27,500 960 Climbing Minneapolis Center
06:12PM 44.2644 -91.4175 121° Southeast 423 487 28,700 1,140 Climbing Minneapolis Center
06:13PM 44.1989 -91.2592 120° Southeast 433 498 29,900 1,020 Climbing Minneapolis Center
06:14PM 44.1361 -91.1106 120° Southeast 442 509 30,900 960 Climbing Minneapolis Center
06:15PM 44.0733 -90.9639 121° Southeast 445 512 32,000 1,140 Climbing Minneapolis Center
06:16PM 43.9983 -90.7878 121° Southeast 444 511 33,300 960 Climbing Minneapolis Center
06:17PM 43.9358 -90.6403 120° Southeast 445 512 34,100 780 Climbing Minneapolis Center
06:18PM 43.8728 -90.4947 121° Southeast 444 511 35,000 420 Climbing Minneapolis Center
06:19PM 43.8103 -90.3497 121° Southeast 440 506 35,000  Level Minneapolis Center
06:20PM 43.7367 -90.1844 122° Southeast 434 499 35,000  Level Minneapolis Center
06:21PM 43.6742 -90.0411 121° Southeast 435 501 35,000  Level Minneapolis Center
06:22PM 43.6094 -89.8964 122° Southeast 440 506 35,000  Level Minneapolis Center
06:23PM 43.5467 -89.7525 121° Southeast 438 504 35,000  Level Chicago Center
06:24PM 43.5019 -89.5914 111° Southeast 449 517 35,000  Level Chicago Center
06:25PM 43.4561 -89.4322 112° Southeast 447 514 35,000  Level Chicago Center
06:26PM 43.4092 -89.2744 112° Southeast 448 516 35,000  Level Chicago Center
06:27PM 43.3619 -89.1136 112° Southeast 452 520 35,000  Level Chicago Center
06:28PM 43.3075 -88.9269 112° Southeast 454 522 35,000  Level Chicago Center
06:29PM 43.2603 -88.7683 112° Southeast 453 521 35,000  Level Chicago Center
06:30PM 43.2136 -88.6106 112° Southeast 452 520 35,000  Level Chicago Center
06:32PM 43.1667 -88.4525 112° Southeast 454 522 35,000  Level Chicago Center
06:33PM 43.1156 -88.2675 111° Southeast 450 518 35,000  Level Chicago Center
06:34PM 43.0967 -88.0972 99° East 455 524 35,000  Level Chicago Center
06:35PM 43.0781 -87.9236 98° East 460 529 35,000  Level Chicago Center
06:36PM 43.0586 -87.7517 99° East 459 528 35,000  Level Chicago Center
06:37PM 43.0397 -87.5783 98° East 461 531 35,000  Level Chicago Center
06:38PM 43.0161 -87.3747 99° East 464 534 35,000  Level Chicago Center
06:39PM 42.9958 -87.1939 99° East 469 540 35,000  Level Chicago Center
06:40PM 42.9758 -87.0214 99° East 465 535 35,000  Level Chicago Center
06:41PM 42.9544 -86.8472 99° East 466 536 35,000  Level Chicago Center
06:42PM 42.9353 -86.6733 99° East 466 536 35,000  Level Chicago Center
06:43PM 42.9133 -86.4992 100° East 468 539 35,000  Level Chicago Center
06:44PM 42.8872 -86.2911 100° East 469 540 35,000  Level Chicago Center
06:45PM 42.8661 -86.1178 99° East 471 542 35,000  Level Chicago Center
06:46PM 42.8444 -85.9458 100° East 471 542 35,000  Level Chicago Center
06:47PM 42.8219 -85.7722 100° East 474 545 35,000  Level Chicago Center
06:48PM 42.7953 -85.5619 100° East 474 545 35,000  Level Chicago Center
06:49PM 42.7522 -85.3936 109° East 474 545 35,000  Level Chicago Center
06:50PM 42.6953 -85.2353 116° Southeast 468 539 35,000  Level Chicago Center
06:51PM 42.6400 -85.0756 115° Southeast 468 539 35,000  Level Chicago Center
06:52PM 42.5833 -84.9164 116° Southeast 470 541 35,000  Level Chicago Center
06:53PM 42.5250 -84.7578 116° Southeast 472 543 35,000  Level Chicago Center
06:54PM 42.4614 -84.5858 117° Southeast 468 539 35,000  Level Cleveland Center
06:55PM 42.4042 -84.4275 116° Southeast 468 539 35,000  Level Cleveland Center
06:56PM 42.3450 -84.2664 116° Southeast 468 539 35,000  Level Cleveland Center
06:57PM 42.2892 -84.1117 116° Southeast 468 539 35,000  Level Cleveland Center
06:58PM 42.2314 -83.9542 116° Southeast 468 539 35,000  Level Cleveland Center
06:59PM 42.1714 -83.7969 117° Southeast 468 539 35,000  Level Cleveland Center
07:00PM 42.1131 -83.6400 117° Southeast 468 539 35,000  Level Cleveland Center
07:01PM 42.0547 -83.4833 117° Southeast 468 539 35,000  Level Cleveland Center
07:02PM 41.9811 -83.3375 124° Southeast 468 539 35,000  Level Cleveland Center
07:03PM 41.9153 -83.2117 125° Southeast 468 539 35,000  Level Cleveland Center
07:04PM 41.8333 -83.0550 125° Southeast 468 539 35,000  Level Cleveland Center
07:05PM 41.7442 -82.9292 134° Southeast 468 539 35,000  Level Cleveland Center
07:06PM 41.6508 -82.8036 135° Southeast 463 533 35,000  Level Cleveland Center
07:07PM 41.5492 -82.6697 135° Southeast 468 539 35,000  Level Cleveland Center
07:08PM 41.4553 -82.5475 136° Southeast 468 539 35,000  Level Cleveland Center
07:09PM 41.3614 -82.4228 135° Southeast 473 544 35,000  Level Cleveland Center
07:10PM 41.2694 -82.3014 135° Southeast 473 544 35,000  Level Cleveland Center
07:11PM 41.1775 -82.1803 135° Southeast 473 544 35,000  Level Cleveland Center
07:12PM 41.0853 -82.0597 135° Southeast 473 544 35,000  Level Cleveland Center
07:13PM 40.9908 -81.9419 137° Southeast 473 544 35,000  Level Cleveland Center
07:14PM 40.9006 -81.8247 136° Southeast 473 544 35,000  Level Cleveland Center
07:15PM 40.8058 -81.7050 136° Southeast 473 544 35,000  Level Cleveland Center
07:16PM 40.7153 -81.5856 135° Southeast 468 539 35,000  Level Cleveland Center
07:17PM 40.6225 -81.4667 136° Southeast 468 539 35,000  Level Cleveland Center
07:18PM 40.5397 -81.3561 135° Southeast 474 545 35,000  Level Cleveland Center
07:19PM 40.4489 -81.2406 136° Southeast 474 545 35,000  Level Cleveland Center
07:20PM 40.3536 -81.1253 137° Southeast 474 545 35,000  Level Cleveland Center
07:21PM 40.2581 -81.0019 135° Southeast 474 545 35,000  Level Cleveland Center
07:22PM 40.1647 -80.8847 136° Southeast 474 545 35,000  Level Cleveland Center
07:23PM 40.0692 -80.7703 137° Southeast 474 545 35,000  Level Cleveland Center
07:24PM 39.9733 -80.6508 136° Southeast 474 545 35,000  Level Cleveland Center
07:25PM 39.8794 -80.5317 136° Southeast 474 545 35,000  Level Cleveland Center
07:26PM 39.7856 -80.4156 136° Southeast 474 545 35,000  Level Cleveland Center
07:28PM 39.6308 -80.2289 137° Southeast 471 542 35,000  Level Washington Center
07:29PM 39.5350 -80.1122 137° Southeast 471 542 35,000 -360 Level Washington Center
07:30PM 39.4394 -79.9961 137° Southeast 476 548 34,300 -1,740 Descending Washington Center
07:31PM 39.3375 -79.8744 137° Southeast 482 555 31,600 -1,680 Descending Washington Center
07:32PM 39.2922 -79.7350 113° Southeast 474 545 31,000 -300 Descending Washington Center
07:33PM 39.2769 -79.5706 97° East 447 514 31,000 -300 Level Washington Center
07:34PM 39.2636 -79.4064 96° East 452 520 30,500 -1,620 Descending Washington Center
07:35PM 39.2486 -79.2206 96° East 465 535 27,900 -1,920 Descending Washington Center
07:36PM 39.2342 -79.0697 97° East 458 527 26,700 -1,260 Descending Washington Center
07:37PM 39.2217 -78.9192 96° East 446 513 25,400 -1,800 Descending Washington Center
07:38PM 39.2069 -78.7739 97° East 421 484 23,100 -2,220 Descending Washington Center
07:39PM 39.1919 -78.6339 98° East 410 472 21,000 -2,100 Descending Washington Center
07:40PM 39.1764 -78.4967 98° East 390 449 19,000 -1,980 Descending Washington Center
07:41PM 39.1628 -78.3650 98° East 385 443 17,100 -1,500 Descending Washington Center
07:42PM 39.1325 -78.2381 107° East 370 426 16,000 -1,020 Descending Washington Center
07:43PM 39.1017 -78.1139 108° East 364 419 15,100 -1,020 Descending Washington Center
07:44PM 39.0728 -78.0033 109° East 353 406 14,000 -1,080 Descending Washington Center
07:45PM 39.0225 -77.9108 125° Southeast 315 362 13,000 -960 Descending Washington Center
07:46PM 38.9375 -77.8867 168° South 288 331 12,100 -720 Descending Washington Center
07:47PM 38.8503 -77.8572 165° South 306 352 11,600 -600 Descending Washington Center
07:48PM 38.7700 -77.8122 156° South 318 366 11,000 -360 Descending Washington Center
07:49PM 38.7489 -77.7053 104° East 281 323 11,000  Level Washington Center
07:50PM 38.7333 -77.5500 97° East 261 300 11,100 -120 Climbing Potomac TRACON
07:51PM 38.7167 -77.4667 104° East 243 280 10,800 -780 Descending Potomac TRACON
07:52PM 38.7167 -77.3833 90° East 241 277 9,600 -1,320 Descending Potomac TRACON
07:53PM 38.7000 -77.3000 104° East 237 273 8,200 -780 Descending Potomac TRACON
07:54PM 38.7000 -77.2167 90° East 235 270 8,100 -660 Descending Potomac TRACON
07:55PM 38.6500 -77.1667 142° Southeast 237 273 7,000 -1,080 Descending Potomac TRACON
07:56PM 38.6000 -77.1667 180° South 220 253 6,100 -900 Descending Potomac TRACON
07:57PM 38.5333 -77.1500 169° South 203 234 5,300 -540 Descending Potomac TRACON
07:58PM 38.5000 -77.1167 142° Southeast 220 253 5,100 -300 Descending Potomac TRACON
07:59PM 38.5000 -77.0500 90° East 202 232 4,700 -540 Descending Potomac TRACON
08:00PM 38.5333 -77.0000 50° Northeast 175 201 4,100 -480 Descending Potomac TRACON
08:01PM 38.5833 -77.0167 345° North 167 192 3,800 -480 Descending Potomac TRACON
08:02PM 38.6333 -77.0167 360° North 167 192 3,300 -540 Descending Potomac TRACON